createdAt,value
2018-05-31T00:02:26.661Z,60.57
2018-05-31T00:04:54.792Z,62.70
2018-05-31T00:07:22.916Z,61.23
2018-05-31T00:09:51.075Z,63.57
2018-05-31T00:12:19.678Z,61.33
2018-05-31T00:14:47.794Z,64.13
2018-05-31T00:17:15.916Z,62.93
2018-05-31T00:19:44.018Z,62.50
2018-05-31T00:22:13.033Z,64.23
2018-05-31T00:24:41.148Z,61.77
2018-05-31T00:27:09.296Z,63.40
2018-05-31T00:29:37.421Z,63.97
2018-05-31T00:32:05.579Z,64.30
2018-05-31T00:34:33.709Z,66.63
2018-05-31T00:37:01.864Z,61.37
2018-05-31T00:39:30.026Z,65.50
2018-05-31T00:41:58.151Z,61.90
2018-05-31T00:44:26.279Z,64.73
2018-05-31T00:46:55.200Z,61.73
2018-05-31T00:49:24.243Z,62.10
2018-05-31T00:51:52.357Z,63.93
2018-05-31T00:54:20.491Z,60.07
2018-05-31T00:56:48.662Z,62.27
2018-05-31T00:59:16.786Z,61.90
2018-05-31T01:01:44.914Z,61.33
2018-05-31T01:04:13.052Z,64.57
2018-05-31T01:06:41.180Z,61.97
2018-05-31T01:09:09.329Z,62.97
2018-05-31T01:11:37.448Z,64.87
2018-05-31T01:14:05.576Z,63.43
2018-05-31T01:16:33.747Z,63.40
2018-05-31T01:19:01.869Z,65.57
2018-05-31T01:21:29.996Z,63.13
2018-05-31T01:23:58.143Z,64.50
2018-05-31T01:26:26.468Z,65.70
2018-05-31T01:41:54.596Z,68.83
2018-05-31T01:44:22.710Z,68.83
2018-05-31T01:46:50.834Z,70.63
2018-05-31T01:49:18.964Z,73.53
2018-05-31T01:51:47.077Z,71.47
2018-05-31T01:54:15.871Z,74.07
2018-05-31T01:56:44.008Z,73.87
2018-05-31T01:59:12.129Z,72.03
2018-05-31T02:01:40.229Z,74.47
2018-05-31T02:04:08.367Z,74.73
2018-05-31T02:06:36.478Z,72.10
2018-05-31T02:09:04.600Z,70.50
2018-05-31T02:11:32.772Z,72.97
2018-05-31T02:14:00.890Z,74.87
2018-05-31T02:16:29.009Z,75.87
2018-05-31T02:18:57.167Z,74.33
2018-05-31T02:21:25.286Z,71.30
2018-05-31T02:23:53.400Z,75.90
2018-05-31T02:26:21.516Z,73.00
2018-05-31T02:28:49.624Z,75.53
2018-05-31T02:31:18.820Z,74.27
2018-05-31T02:33:47.157Z,75.30
2018-05-31T02:36:15.296Z,80.07
2018-05-31T02:38:43.693Z,78.60
2018-05-31T02:41:11.806Z,79.77
2018-05-31T02:43:39.943Z,75.50
2018-05-31T02:46:08.100Z,75.20
2018-05-31T02:48:36.213Z,77.30
2018-05-31T02:51:04.323Z,78.43
2018-05-31T02:53:32.460Z,77.53
2018-05-31T02:56:00.566Z,80.30
2018-05-31T02:58:28.714Z,78.23
2018-05-31T03:00:56.834Z,84.70
2018-05-31T03:03:24.939Z,83.67
2018-05-31T03:05:53.660Z,84.07
2018-05-31T03:08:22.268Z,83.03
2018-05-31T03:10:50.366Z,83.33
2018-05-31T03:13:18.497Z,84.27
2018-05-31T03:15:46.592Z,87.37
2018-05-31T03:18:14.702Z,85.03
2018-05-31T03:20:42.830Z,84.23
2018-05-31T03:23:10.944Z,82.43
2018-05-31T03:25:39.054Z,82.67
2018-05-31T03:28:07.216Z,88.90
2018-05-31T03:30:36.667Z,85.80
2018-05-31T03:33:04.777Z,85.77
2018-05-31T03:35:32.916Z,87.30
2018-05-31T03:38:01.068Z,87.97
2018-05-31T03:40:29.172Z,89.90
2018-05-31T03:42:57.304Z,89.50
2018-05-31T03:45:25.694Z,86.27
2018-05-31T03:47:53.852Z,87.70
2018-05-31T03:50:21.983Z,91.17
2018-05-31T03:52:50.885Z,88.23
2018-05-31T03:55:19.021Z,92.37
2018-05-31T03:57:47.116Z,93.10
2018-05-31T04:00:16.268Z,92.00
2018-05-31T04:02:49.328Z,88.47
2018-05-31T04:05:17.740Z,92.53
2018-05-31T04:07:45.854Z,95.33
2018-05-31T04:10:14.020Z,91.83
2018-05-31T04:12:42.148Z,91.53
2018-05-31T04:15:10.283Z,90.13
2018-05-31T04:17:38.404Z,90.50
2018-05-31T04:20:06.512Z,89.77
2018-05-31T04:22:34.620Z,92.87
2018-05-31T04:25:02.772Z,93.67
2018-05-31T04:27:36.497Z,91.93
2018-05-31T04:30:05.544Z,93.50
2018-05-31T04:32:33.635Z,90.80
2018-05-31T04:35:02.050Z,90.00
2018-05-31T04:37:35.108Z,91.07
2018-05-31T04:40:03.223Z,91.50
2018-05-31T04:42:31.372Z,91.90
2018-05-31T04:44:59.444Z,90.80
2018-05-31T04:47:28.206Z,90.27
2018-05-31T04:49:56.981Z,88.40
2018-05-31T04:52:25.424Z,91.17
2018-05-31T04:54:53.540Z,94.07
2018-05-31T04:57:21.674Z,92.43
2018-05-31T04:59:49.773Z,92.87
2018-05-31T05:02:17.877Z,93.40
2018-05-31T05:04:45.992Z,88.97
2018-05-31T05:07:14.128Z,92.67
2018-05-31T05:09:42.268Z,89.73
2018-05-31T05:12:10.392Z,92.97
2018-05-31T05:14:38.508Z,93.00
2018-05-31T05:17:06.630Z,94.53
2018-05-31T05:19:34.751Z,94.33
2018-05-31T05:22:02.894Z,94.40
2018-05-31T05:24:30.998Z,93.73
2018-05-31T05:26:59.118Z,96.10
2018-05-31T05:29:27.272Z,97.30
2018-05-31T05:31:55.418Z,98.37
2018-05-31T05:34:23.525Z,95.33
2018-05-31T05:36:51.696Z,95.10
2018-05-31T05:39:19.795Z,91.30
2018-05-31T05:41:47.906Z,96.17
2018-05-31T05:44:16.016Z,92.07
2018-05-31T05:46:44.146Z,92.63
2018-05-31T05:49:12.266Z,91.67
2018-05-31T05:51:40.376Z,95.07
2018-05-31T05:54:08.524Z,91.53
2018-05-31T05:56:36.632Z,93.63
2018-05-31T06:12:04.779Z,88.00
2018-05-31T06:14:32.880Z,91.43
2018-05-31T06:17:00.984Z,90.77
2018-05-31T06:19:29.147Z,90.63
2018-05-31T06:21:57.264Z,90.53
2018-05-31T06:24:25.677Z,85.40
2018-05-31T06:26:54.147Z,83.47
2018-05-31T06:29:23.161Z,82.90
2018-05-31T06:31:51.256Z,78.27
2018-05-31T06:34:19.383Z,80.67
2018-05-31T06:36:47.505Z,82.40
2018-05-31T06:39:15.945Z,81.30
2018-05-31T06:41:44.060Z,76.37
2018-05-31T06:44:12.481Z,78.47
2018-05-31T06:46:40.642Z,75.60
2018-05-31T06:49:08.742Z,76.40
2018-05-31T06:51:37.648Z,76.50
2018-05-31T06:54:05.763Z,74.77
2018-05-31T06:56:33.888Z,76.97
2018-05-31T06:59:02.769Z,74.97
2018-05-31T07:01:30.872Z,72.03
2018-05-31T07:03:59.997Z,74.00
2018-05-31T07:06:28.190Z,73.30
2018-05-31T07:08:56.279Z,74.63
2018-05-31T07:11:24.537Z,68.27
2018-05-31T07:13:52.631Z,72.90
2018-05-31T07:16:21.703Z,69.70
2018-05-31T07:18:49.830Z,73.23
2018-05-31T07:21:17.965Z,72.20
2018-05-31T07:23:46.088Z,72.13
2018-05-31T07:26:14.189Z,68.87
2018-05-31T07:28:42.314Z,70.00
2018-05-31T07:31:10.751Z,68.47
2018-05-31T07:33:38.860Z,68.17
2018-05-31T07:36:06.994Z,69.20
2018-05-31T07:38:35.129Z,66.10
2018-05-31T07:41:03.305Z,68.37
2018-05-31T07:43:31.399Z,69.23
2018-05-31T07:45:59.508Z,70.17
2018-05-31T07:48:27.637Z,73.23
2018-05-31T07:50:55.746Z,74.33
2018-05-31T07:53:29.886Z,67.73
2018-05-31T07:55:58.861Z,69.93
2018-05-31T07:58:26.974Z,68.60
2018-05-31T08:00:55.136Z,76.93
2018-05-31T08:03:23.241Z,78.13
2018-05-31T08:05:51.359Z,81.33
2018-05-31T08:08:19.461Z,85.20
2018-05-31T08:10:47.598Z,78.43
2018-05-31T08:13:15.761Z,84.33
2018-05-31T08:15:43.869Z,83.00
2018-05-31T08:18:11.981Z,86.43
2018-05-31T08:20:40.933Z,84.83
2018-05-31T08:23:09.135Z,78.40
2018-05-31T08:25:43.446Z,72.40
2018-05-31T08:28:11.641Z,76.97
2018-05-31T08:30:39.781Z,81.70
2018-05-31T08:33:07.886Z,79.33
2018-05-31T08:35:35.999Z,77.20
2018-05-31T08:38:04.395Z,78.57
2018-05-31T08:40:32.521Z,77.73
2018-05-31T08:43:00.641Z,85.07
2018-05-31T08:45:28.805Z,56.77
2018-05-31T08:47:56.929Z,43.03
2018-05-31T08:50:25.074Z,41.40
2018-05-31T08:52:54.011Z,36.00
2018-05-31T08:55:22.393Z,29.17
2018-05-31T08:57:50.490Z,24.67
2018-05-31T09:00:18.683Z,17.63
2018-05-31T09:02:47.164Z,13.60
2018-05-31T09:05:15.257Z,10.87
2018-05-31T09:07:43.372Z,10.47
2018-05-31T09:10:12.705Z,11.57
2018-05-31T09:12:40.817Z,11.80
2018-05-31T09:15:08.940Z,13.53
2018-05-31T09:17:37.040Z,14.57
2018-05-31T09:20:05.148Z,15.87
2018-05-31T09:22:33.709Z,17.87
2018-05-31T09:25:01.827Z,18.40
2018-05-31T09:27:29.929Z,17.97
2018-05-31T09:29:58.045Z,19.83
2018-05-31T09:32:26.627Z,18.83
2018-05-31T09:34:54.736Z,20.80
2018-05-31T09:37:22.869Z,20.40
2018-05-31T09:39:50.997Z,21.33
2018-05-31T09:42:19.214Z,24.67
2018-05-31T09:44:47.343Z,24.13
2018-05-31T09:47:15.809Z,22.23
2018-05-31T09:49:43.891Z,21.17
2018-05-31T09:52:12.021Z,21.67
2018-05-31T09:54:40.131Z,20.97
2018-05-31T09:57:08.251Z,20.67
2018-05-31T09:59:42.127Z,19.73
2018-05-31T10:02:15.801Z,18.20
2018-05-31T10:04:43.921Z,16.77
2018-05-31T10:07:12.144Z,16.40
2018-05-31T10:09:40.233Z,17.80
2018-05-31T10:12:08.384Z,15.03
2018-05-31T10:14:36.509Z,14.27
2018-05-31T10:17:04.638Z,14.20
2018-05-31T10:19:32.715Z,14.37
2018-05-31T10:22:00.873Z,15.53
2018-05-31T10:24:28.969Z,15.67
2018-05-31T10:26:57.085Z,15.07
2018-05-31T10:29:25.209Z,14.67
2018-05-31T10:31:53.324Z,15.67
2018-05-31T10:34:21.436Z,14.60
2018-05-31T10:36:49.566Z,14.87
2018-05-31T10:52:17.704Z,15.47
2018-05-31T10:54:45.928Z,15.13
2018-05-31T10:57:14.021Z,16.70
2018-05-31T10:59:42.144Z,16.57
2018-05-31T11:02:10.238Z,15.53
2018-05-31T11:04:38.338Z,16.17
2018-05-31T11:07:06.456Z,18.73
2018-05-31T11:09:34.638Z,20.23
2018-05-31T11:12:02.742Z,16.57
2018-05-31T11:14:30.878Z,14.00
2018-05-31T11:16:59.322Z,42.70
2018-05-31T11:19:27.436Z,22.17
2018-05-31T11:21:55.836Z,12.43
2018-05-31T11:37:23.962Z,7.57
2018-05-31T11:39:52.113Z,7.13
2018-05-31T11:42:20.276Z,6.80
2018-05-31T11:44:48.328Z,6.67
2018-05-31T11:47:16.420Z,5.77
2018-05-31T11:49:44.534Z,5.37
2018-05-31T11:52:12.618Z,5.90
2018-05-31T11:54:40.736Z,6.40
2018-05-31T11:57:08.909Z,6.43
2018-05-31T11:59:37.400Z,6.50
2018-05-31T12:02:05.580Z,5.40
2018-05-31T12:04:33.760Z,5.90
2018-05-31T12:07:01.872Z,4.97
2018-05-31T12:09:29.959Z,5.03
2018-05-31T12:11:58.082Z,4.97
2018-05-31T12:14:26.181Z,5.40
2018-05-31T12:16:54.323Z,6.00
2018-05-31T12:19:23.024Z,6.47
2018-05-31T12:21:51.092Z,6.20
2018-05-31T12:24:19.204Z,6.40
2018-05-31T12:26:47.330Z,6.70
2018-05-31T12:29:15.581Z,7.33
2018-05-31T12:31:43.668Z,6.70
2018-05-31T12:34:12.779Z,7.60
2018-05-31T12:36:40.864Z,6.13
2018-05-31T12:39:08.976Z,7.17
2018-05-31T12:41:38.411Z,6.70
2018-05-31T12:44:07.400Z,6.30
2018-05-31T12:46:35.522Z,4.73
2018-05-31T12:49:03.719Z,4.50
2018-05-31T12:51:31.825Z,5.23
2018-05-31T12:54:01.606Z,4.80
2018-05-31T12:56:29.680Z,5.50
2018-05-31T12:58:57.774Z,5.30
2018-05-31T13:01:26.976Z,5.33
2018-05-31T13:03:58.817Z,4.53
2018-05-31T13:06:26.915Z,4.97
2018-05-31T13:08:55.008Z,6.80
2018-05-31T13:11:23.137Z,6.37
2018-05-31T13:13:51.256Z,5.60
2018-05-31T13:16:19.328Z,6.10
2018-05-31T13:18:47.465Z,4.90
2018-05-31T13:21:15.570Z,4.73
2018-05-31T13:23:43.685Z,4.90
2018-05-31T13:26:11.859Z,4.80
2018-05-31T13:28:40.039Z,3.63
2018-05-31T13:31:08.144Z,4.27
2018-05-31T13:46:36.282Z,4.00
2018-05-31T13:49:04.382Z,3.50
2018-05-31T13:51:32.546Z,3.70
2018-05-31T13:54:00.664Z,3.50
2018-05-31T13:56:28.758Z,3.87
2018-05-31T13:58:56.882Z,3.40
2018-05-31T14:01:24.979Z,3.87
2018-05-31T14:03:53.099Z,3.80
2018-05-31T14:06:21.697Z,3.67
2018-05-31T14:08:49.806Z,4.23
2018-05-31T14:11:17.910Z,3.33
2018-05-31T14:13:46.035Z,4.00
2018-05-31T14:16:14.133Z,4.00
2018-05-31T14:18:42.280Z,3.30
2018-05-31T14:34:11.326Z,6.37
2018-05-31T14:36:39.437Z,3.93
2018-05-31T14:39:07.539Z,4.70
2018-05-31T14:41:35.640Z,4.90
2018-05-31T14:44:03.765Z,5.20
2018-05-31T14:46:31.877Z,4.33
2018-05-31T14:49:00.899Z,4.47
2018-05-31T14:51:29.001Z,5.10
2018-05-31T14:53:57.792Z,4.47
2018-05-31T14:56:25.910Z,4.17
2018-05-31T14:58:54.033Z,4.90
2018-05-31T15:01:22.124Z,4.90
2018-05-31T15:03:50.237Z,5.00
2018-05-31T15:06:18.332Z,4.90
2018-05-31T15:08:46.432Z,5.43
2018-05-31T15:13:49.011Z,5.30
2018-05-31T15:16:17.125Z,6.30
2018-05-31T15:18:45.273Z,5.93
2018-05-31T15:21:13.390Z,4.60
2018-05-31T15:36:41.525Z,6.40
2018-05-31T15:39:10.658Z,6.67
2018-05-31T15:41:38.736Z,6.30
2018-05-31T15:44:06.859Z,6.93
2018-05-31T15:46:34.956Z,8.10
2018-05-31T15:49:04.045Z,7.97
2018-05-31T15:51:32.438Z,7.77
2018-05-31T15:54:00.527Z,8.40
2018-05-31T15:56:28.636Z,7.53
2018-05-31T15:58:56.755Z,8.93
2018-05-31T16:01:24.861Z,7.90
2018-05-31T16:03:52.987Z,7.83
2018-05-31T16:06:21.140Z,7.07
2018-05-31T16:08:49.266Z,7.60
2018-05-31T16:11:18.100Z,7.90
2018-05-31T16:13:46.201Z,8.10
2018-05-31T16:16:14.358Z,7.20
2018-05-31T16:18:43.391Z,7.27
2018-05-31T16:21:11.516Z,8.17
2018-05-31T16:23:45.216Z,8.27
2018-05-31T16:26:13.360Z,8.83
2018-05-31T16:28:41.469Z,8.57
2018-05-31T16:31:09.581Z,8.60
2018-05-31T16:33:37.682Z,8.10
2018-05-31T16:36:05.821Z,8.43
2018-05-31T16:38:33.973Z,8.57
2018-05-31T16:41:02.223Z,10.63
2018-05-31T16:43:31.130Z,8.10
2018-05-31T16:45:59.250Z,8.17
2018-05-31T16:48:27.373Z,7.90
2018-05-31T16:50:56.370Z,8.20
2018-05-31T16:53:24.469Z,8.20
2018-05-31T16:55:52.590Z,8.07
2018-05-31T16:58:20.689Z,7.93
2018-05-31T17:00:49.601Z,9.20
2018-05-31T17:03:18.042Z,8.20
2018-05-31T17:05:46.220Z,7.63
2018-05-31T17:08:14.343Z,9.40
2018-05-31T17:10:42.469Z,9.03
2018-05-31T17:13:10.575Z,8.33
2018-05-31T17:15:38.685Z,8.27
2018-05-31T17:18:06.805Z,7.57
2018-05-31T17:20:34.906Z,8.20
2018-05-31T17:23:03.435Z,7.50
2018-05-31T17:25:31.521Z,7.53
2018-05-31T17:28:00.570Z,8.73
2018-05-31T17:30:28.684Z,6.77
2018-05-31T17:32:56.821Z,8.87
2018-05-31T17:35:24.950Z,9.70
2018-05-31T17:37:53.040Z,7.57
2018-05-31T17:40:21.356Z,8.40
2018-05-31T17:42:50.281Z,8.27
2018-05-31T17:45:18.387Z,7.40
2018-05-31T17:47:46.504Z,8.33
2018-05-31T17:50:14.618Z,6.67
2018-05-31T17:52:42.732Z,7.97
2018-05-31T17:55:10.828Z,7.50
2018-05-31T17:57:38.919Z,7.40
2018-05-31T18:00:07.050Z,7.70
2018-05-31T18:02:35.142Z,7.40
2018-05-31T18:05:03.246Z,8.43
2018-05-31T18:07:31.355Z,8.57
2018-05-31T18:09:59.508Z,8.30
2018-05-31T18:12:27.560Z,9.60
2018-05-31T18:14:55.868Z,8.83
2018-05-31T18:17:24.732Z,8.77
2018-05-31T18:19:53.452Z,8.83
2018-05-31T18:22:21.553Z,8.37
2018-05-31T18:24:49.653Z,8.17
2018-05-31T18:27:17.788Z,9.00
2018-05-31T18:29:45.909Z,8.43
2018-05-31T18:32:14.031Z,8.50
2018-05-31T18:34:42.174Z,8.53
2018-05-31T18:37:10.233Z,10.10
2018-05-31T18:39:38.410Z,12.90
2018-05-31T18:42:06.539Z,12.80
2018-05-31T18:44:34.691Z,13.57
2018-05-31T18:47:04.088Z,12.83
2018-05-31T18:49:32.384Z,13.70
2018-05-31T18:52:00.516Z,12.70
2018-05-31T18:54:28.653Z,14.10
2018-05-31T18:56:56.745Z,14.53
2018-05-31T18:59:24.867Z,13.57
2018-05-31T19:01:53.596Z,13.37
2018-05-31T19:04:21.722Z,14.23
2018-05-31T19:06:49.891Z,14.10
2018-05-31T19:09:23.506Z,12.67
2018-05-31T19:11:51.627Z,13.40
2018-05-31T19:14:19.761Z,14.17
2018-05-31T19:16:47.886Z,12.83
2018-05-31T19:32:16.053Z,14.00
2018-05-31T19:34:44.179Z,13.23
2018-05-31T19:37:13.057Z,12.10
2018-05-31T19:39:41.219Z,13.17
2018-05-31T19:42:14.889Z,14.53
2018-05-31T19:44:43.007Z,14.10
2018-05-31T19:47:11.151Z,13.13
2018-05-31T19:49:39.373Z,13.70
2018-05-31T19:52:13.209Z,13.07
2018-05-31T19:54:41.343Z,13.63
2018-05-31T19:57:09.455Z,13.13
2018-05-31T19:59:43.326Z,13.70
2018-05-31T20:05:15.104Z,14.50
2018-05-31T20:07:43.221Z,14.53
2018-05-31T20:10:11.320Z,13.97
2018-05-31T20:12:39.513Z,13.33
2018-05-31T20:15:07.581Z,13.23
2018-05-31T20:17:41.231Z,12.93
2018-05-31T20:20:09.369Z,14.23
2018-05-31T20:22:38.437Z,13.90
2018-05-31T20:25:06.540Z,13.73
2018-05-31T20:27:34.672Z,14.63
2018-05-31T20:30:02.836Z,14.57
2018-05-31T20:32:30.951Z,13.13
2018-05-31T20:34:59.056Z,15.17
2018-05-31T20:37:27.183Z,13.70
2018-05-31T20:39:55.301Z,14.03
2018-05-31T20:42:23.444Z,14.30
2018-05-31T20:44:51.797Z,14.87
2018-05-31T20:47:19.981Z,14.73
2018-05-31T20:49:48.095Z,15.17
2018-05-31T20:52:16.211Z,15.77
2018-05-31T20:54:44.341Z,14.70
2018-05-31T20:57:12.455Z,16.00
2018-05-31T20:59:40.839Z,15.63
2018-05-31T21:02:08.953Z,14.67
2018-05-31T21:04:37.988Z,15.60
2018-05-31T21:07:06.087Z,17.17
2018-05-31T21:09:34.223Z,15.73
2018-05-31T21:12:02.359Z,17.17
2018-05-31T21:14:30.512Z,16.27
2018-05-31T21:16:58.655Z,16.60
2018-05-31T21:19:26.771Z,16.17
2018-05-31T21:21:55.007Z,15.87
2018-05-31T21:24:23.113Z,15.60
2018-05-31T21:26:51.225Z,16.63
2018-05-31T21:29:19.376Z,16.63
2018-05-31T21:31:47.491Z,16.83
2018-05-31T21:34:15.573Z,16.97
2018-05-31T21:36:43.774Z,17.77
2018-05-31T21:39:12.407Z,17.37
2018-05-31T21:41:40.515Z,16.80
2018-05-31T21:44:08.629Z,18.53
2018-05-31T21:46:36.741Z,20.10
2018-05-31T21:49:04.864Z,21.07
2018-05-31T21:51:32.969Z,20.40
2018-05-31T21:54:01.132Z,20.43
2018-05-31T21:56:29.261Z,20.73
2018-05-31T21:58:57.400Z,22.20
2018-05-31T22:01:25.494Z,22.60
2018-05-31T22:03:53.635Z,21.87
2018-05-31T22:06:21.726Z,22.97
2018-05-31T22:08:51.549Z,21.93
2018-05-31T22:11:19.678Z,21.20
2018-05-31T22:13:47.793Z,23.13
2018-05-31T22:16:15.889Z,19.80
2018-05-31T22:18:43.999Z,20.47
2018-05-31T22:21:12.099Z,20.90
2018-05-31T22:23:40.533Z,19.87
2018-05-31T22:26:08.909Z,20.53
2018-05-31T22:28:37.025Z,20.07
2018-05-31T22:31:05.463Z,21.17
2018-05-31T22:33:34.260Z,20.27
2018-05-31T22:36:02.357Z,20.60
2018-05-31T22:38:30.493Z,21.23
2018-05-31T22:40:59.349Z,20.77
2018-05-31T22:43:27.458Z,20.97
2018-05-31T22:45:55.582Z,20.23
2018-05-31T22:48:23.673Z,22.00
2018-05-31T23:03:51.794Z,23.47
2018-05-31T23:06:19.908Z,23.77
2018-05-31T23:08:48.009Z,23.73
2018-05-31T23:11:16.141Z,23.90
2018-05-31T23:13:44.237Z,23.43
2018-05-31T23:16:12.343Z,21.97
2018-05-31T23:18:41.128Z,23.73
2018-05-31T23:21:09.231Z,22.87
2018-05-31T23:23:37.331Z,23.30
2018-05-31T23:26:05.490Z,22.53
2018-05-31T23:28:33.601Z,24.43
2018-05-31T23:31:01.695Z,24.13
2018-05-31T23:33:29.825Z,23.37
2018-05-31T23:35:58.273Z,24.03
2018-05-31T23:38:26.378Z,22.43
2018-05-31T23:40:54.512Z,23.67
2018-05-31T23:43:22.901Z,24.70
2018-05-31T23:45:51.005Z,22.77
2018-05-31T23:48:19.125Z,23.83
2018-05-31T23:50:47.243Z,23.60
2018-05-31T23:53:15.338Z,23.27
2018-05-31T23:55:43.469Z,24.37
2018-05-31T23:58:11.566Z,24.60
